Time,TemperatureF,DewpointF,PressureIn,WindDirection,WindDirectionDegrees,WindSpeedMPH,WindSpeedGustMPH,Humidity,HourlyPrecipIn,Conditions,Clouds,dailyrainin,SoftwareType,DateUTC
2013-09-23 00:23:00,57.0,-99.9,-100.00,ESE,102,4.0,6.0,-999,0.00,,,0.00,,2013-09-23 05:23:00,
2013-09-23 00:43:00,56.0,-99.9,-100.00,East,101,4.0,6.0,-999,0.00,,,0.00,,2013-09-23 05:43:00,
2013-09-23 00:53:00,56.0,-99.9,-100.00,East,101,4.0,6.0,-999,0.00,,,0.00,,2013-09-23 05:53:00,
2013-09-23 01:02:00,56.0,-99.9,-100.00,East,101,4.0,6.0,-999,0.00,,,0.00,,2013-09-23 06:02:00,
2013-09-23 01:22:00,56.0,-99.9,-100.00,ESE,110,4.0,6.0,-999,0.00,,,0.00,,2013-09-23 06:22:00,
2013-09-23 01:42:00,55.0,-99.9,-100.00,ESE,106,4.0,5.0,-999,0.00,,,0.00,,2013-09-23 06:42:00,
2013-09-23 01:52:00,55.0,-99.9,-100.00,ESE,106,4.0,5.0,-999,0.00,,,0.00,,2013-09-23 06:52:00,
2013-09-23 02:01:00,55.0,-99.9,-100.00,ESE,106,4.0,5.0,-999,0.00,,,0.00,,2013-09-23 07:01:00,
2013-09-23 02:22:00,54.0,-99.9,-100.00,ESE,107,6.0,9.0,-999,0.00,,,0.00,,2013-09-23 07:22:00,
2013-09-23 02:42:00,53.0,-99.9,-100.00,ESE,105,5.0,6.0,-999,0.00,,,0.00,,2013-09-23 07:42:00,
2013-09-23 02:52:00,53.0,-99.9,-100.00,ESE,105,5.0,6.0,-999,0.00,,,0.00,,2013-09-23 07:52:00,
2013-09-23 03:11:00,52.0,-99.9,-100.00,East,96,4.0,6.0,-999,0.00,,,0.00,,2013-09-23 08:11:00,
2013-09-23 03:23:00,52.0,-99.9,-100.00,East,96,4.0,6.0,-999,0.00,,,0.00,,2013-09-23 08:23:00,
2013-09-23 03:42:00,51.0,-99.9,-100.00,ESE,103,4.0,7.0,-999,0.00,,,0.00,,2013-09-23 08:42:00,
2013-09-23 03:52:00,51.0,-99.9,-100.00,ESE,103,4.0,7.0,-999,0.00,,,0.00,,2013-09-23 08:52:00,
2013-09-23 04:11:00,51.0,-99.9,-100.00,East,99,5.0,7.0,-999,0.00,,,0.00,,2013-09-23 09:11:00,
2013-09-23 04:22:00,51.0,-99.9,-100.00,East,99,5.0,7.0,-999,0.00,,,0.00,,2013-09-23 09:22:00,
2013-09-23 04:33:00,51.0,-99.9,-100.00,East,99,5.0,7.0,-999,0.00,,,0.00,,2013-09-23 09:33:00,
2013-09-23 04:53:00,50.0,-99.9,-100.00,ESE,102,4.0,7.0,-999,0.00,,,0.00,,2013-09-23 09:53:00,
2013-09-23 05:04:00,50.0,-99.9,-100.00,ESE,102,4.0,7.0,-999,0.00,,,0.00,,2013-09-23 10:04:00,
2013-09-23 05:23:00,50.0,-99.9,-100.00,ESE,114,4.0,6.0,-999,0.00,,,0.00,,2013-09-23 10:23:00,
2013-09-23 05:43:00,49.0,-99.9,-100.00,ESE,103,4.0,6.0,-999,0.00,,,0.00,,2013-09-23 10:43:00,
2013-09-23 05:53:00,49.0,-99.9,-100.00,ESE,103,4.0,6.0,-999,0.00,,,0.00,,2013-09-23 10:53:00,
2013-09-23 06:03:00,49.0,-99.9,-100.00,ESE,103,4.0,6.0,-999,0.00,,,0.00,,2013-09-23 11:03:00,
2013-09-23 06:22:00,49.0,-99.9,-100.00,ESE,112,4.0,5.0,-999,0.00,,,0.00,,2013-09-23 11:22:00,
2013-09-23 06:42:00,49.0,-99.9,-100.00,ESE,114,4.0,6.0,-999,0.00,,,0.00,,2013-09-23 11:42:00,
2013-09-23 06:52:00,49.0,-99.9,-100.00,ESE,114,4.0,6.0,-999,0.00,,,0.00,,2013-09-23 11:52:00,
2013-09-23 07:02:00,49.0,-99.9,-100.00,ESE,114,4.0,6.0,-999,0.00,,,0.00,,2013-09-23 12:02:00,
2013-09-23 07:22:00,49.0,-99.9,-100.00,ESE,117,5.0,6.0,-999,0.00,,,0.00,,2013-09-23 12:22:00,
2013-09-23 07:42:00,49.0,-99.9,-100.00,ESE,110,6.0,9.0,-999,0.00,,,0.00,,2013-09-23 12:42:00,
2013-09-23 07:52:00,49.0,-99.9,-100.00,ESE,110,6.0,9.0,-999,0.00,,,0.00,,2013-09-23 12:52:00,
2013-09-23 08:11:00,51.0,-99.9,-100.00,ESE,113,5.0,8.0,-999,0.00,,,0.00,,2013-09-23 13:11:00,
2013-09-23 08:22:00,51.0,-99.9,-100.00,ESE,113,5.0,8.0,-999,0.00,,,0.00,,2013-09-23 13:22:00,
2013-09-23 08:42:00,52.0,-99.9,-100.00,ESE,119,6.0,9.0,-999,0.00,,,0.00,,2013-09-23 13:42:00,
2013-09-23 08:52:00,52.0,-99.9,-100.00,ESE,119,6.0,9.0,-999,0.00,,,0.00,,2013-09-23 13:52:00,
2013-09-23 09:02:00,52.0,-99.9,-100.00,ESE,119,6.0,9.0,-999,0.00,,,0.00,,2013-09-23 14:02:00,
2013-09-23 09:22:00,54.0,-99.9,-100.00,SE,126,5.0,9.0,-999,0.00,,,0.00,,2013-09-23 14:22:00,
2013-09-23 09:40:00,58.0,-99.9,-100.00,SSE,158,8.0,13.0,-999,0.00,,,0.00,,2013-09-23 14:40:00,
2013-09-23 09:43:00,56.0,-99.9,-100.00,ESE,118,6.0,9.0,-999,0.00,,,0.00,,2013-09-23 14:43:00,
2013-09-23 09:52:00,56.0,-99.9,-100.00,ESE,118,6.0,9.0,-999,0.00,,,0.00,,2013-09-23 14:52:00,
2013-09-23 10:02:00,56.0,-99.9,-100.00,ESE,118,6.0,9.0,-999,0.00,,,0.00,,2013-09-23 15:02:00,
2013-09-23 10:22:00,58.0,-99.9,-100.00,SSE,158,8.0,13.0,-999,0.00,,,0.00,,2013-09-23 15:22:00,
2013-09-23 10:33:00,58.0,-99.9,-100.00,SSE,158,8.0,13.0,-999,0.00,,,0.00,,2013-09-23 15:33:00,
2013-09-23 11:53:00,65.0,-99.9,-100.00,SSE,152,7.0,11.0,-999,0.00,,,0.00,,2013-09-23 16:53:00,
2013-09-23 12:12:00,67.0,-99.9,-100.00,SSE,147,10.0,16.0,-999,0.00,,,0.00,,2013-09-23 17:12:00,
2013-09-23 12:24:00,67.0,-99.9,-100.00,SSE,147,10.0,16.0,-999,0.00,,,0.00,,2013-09-23 17:24:00,
2013-09-23 12:42:00,68.0,-99.9,-100.00,SSE,157,7.0,11.0,-999,0.00,,,0.00,,2013-09-23 17:42:00,
2013-09-23 12:52:00,68.0,-99.9,-100.00,SSE,157,7.0,11.0,-999,0.00,,,0.00,,2013-09-23 17:52:00,
2013-09-23 13:02:00,68.0,-99.9,-100.00,SSE,157,7.0,11.0,-999,0.00,,,0.00,,2013-09-23 18:02:00,
2013-09-23 13:22:00,70.0,-99.9,-100.00,SSE,147,10.0,12.0,-999,0.00,,,0.00,,2013-09-23 18:22:00,
2013-09-23 13:42:00,71.0,-99.9,-100.00,SSE,156,9.0,13.0,-999,0.00,,,0.00,,2013-09-23 18:42:00,
2013-09-23 13:52:00,71.0,-99.9,-100.00,SSE,156,9.0,13.0,-999,0.00,,,0.00,,2013-09-23 18:52:00,
2013-09-23 14:12:00,73.0,-99.9,-100.00,SE,135,6.0,12.0,-999,0.00,,,0.00,,2013-09-23 19:12:00,
2013-09-23 14:23:00,73.0,-99.9,-100.00,SE,135,6.0,12.0,-999,0.00,,,0.00,,2013-09-23 19:23:00,
2013-09-23 14:42:00,73.0,-99.9,-100.00,SSE,157,10.0,13.0,-999,0.00,,,0.00,,2013-09-23 19:42:00,
2013-09-23 14:53:00,73.0,-99.9,-100.00,SSE,157,10.0,13.0,-999,0.00,,,0.00,,2013-09-23 19:53:00,
2013-09-23 15:12:00,73.0,-99.9,-100.00,SE,135,8.0,10.0,-999,0.00,,,0.00,,2013-09-23 20:12:00,
2013-09-23 15:22:00,73.0,-99.9,-100.00,SE,135,8.0,10.0,-999,0.00,,,0.00,,2013-09-23 20:22:00,
2013-09-23 15:42:00,73.0,-99.9,-100.00,SE,127,10.0,14.0,-999,0.00,,,0.00,,2013-09-23 20:42:00,
2013-09-23 15:52:00,73.0,-99.9,-100.00,SE,127,10.0,14.0,-999,0.00,,,0.00,,2013-09-23 20:52:00,
2013-09-23 16:12:00,74.0,-99.9,-100.00,SE,136,8.0,13.0,-999,0.00,,,0.00,,2013-09-23 21:12:00,
2013-09-23 16:23:00,74.0,-99.9,-100.00,SE,136,8.0,13.0,-999,0.00,,,0.00,,2013-09-23 21:23:00,
2013-09-23 16:44:00,74.0,-99.9,-100.00,SE,138,8.0,12.0,-999,0.00,,,0.00,,2013-09-23 21:44:00,
2013-09-23 16:54:00,74.0,-99.9,-100.00,SE,138,8.0,12.0,-999,0.00,,,0.00,,2013-09-23 21:54:00,
2013-09-23 17:10:00,74.0,-99.9,-100.00,ESE,121,7.0,10.0,-999,0.00,,,0.00,,2013-09-23 22:10:00,
2013-09-23 17:14:00,74.0,-99.9,-100.00,SE,129,8.0,12.0,-999,0.00,,,0.00,,2013-09-23 22:14:00,
2013-09-23 17:24:00,74.0,-99.9,-100.00,SE,129,8.0,12.0,-999,0.00,,,0.00,,2013-09-23 22:24:00,
2013-09-23 17:43:00,74.0,-99.9,-100.00,ESE,121,7.0,10.0,-999,0.00,,,0.00,,2013-09-23 22:43:00,
2013-09-23 17:54:00,74.0,-99.9,-100.00,ESE,121,7.0,10.0,-999,0.00,,,0.00,,2013-09-23 22:54:00,
2013-09-23 18:03:00,74.0,-99.9,-100.00,ESE,121,7.0,10.0,-999,0.00,,,0.00,,2013-09-23 23:03:00,
2013-09-23 18:42:00,72.0,-99.9,-100.00,SE,129,7.0,11.0,-999,0.00,,,0.00,,2013-09-23 23:42:00,
2013-09-23 18:54:00,72.0,-99.9,-100.00,SE,129,7.0,11.0,-999,0.00,,,0.00,,2013-09-23 23:54:00,
2013-09-23 19:02:00,72.0,-99.9,-100.00,SE,129,7.0,11.0,-999,0.00,,,0.00,,2013-09-24 00:02:00,
2013-09-23 19:22:00,71.0,-99.9,-100.00,ESE,120,5.0,7.0,-999,0.00,,,0.00,,2013-09-24 00:22:00,
2013-09-23 19:40:00,66.0,-99.9,-100.00,East,97,5.0,6.0,-999,0.00,,,0.00,,2013-09-24 00:40:00,
2013-09-23 19:43:00,68.0,-99.9,-100.00,ESE,114,4.0,6.0,-999,0.00,,,0.00,,2013-09-24 00:43:00,
2013-09-23 19:52:00,68.0,-99.9,-100.00,ESE,114,4.0,6.0,-999,0.00,,,0.00,,2013-09-24 00:52:00,
2013-09-23 20:02:00,68.0,-99.9,-100.00,ESE,114,4.0,6.0,-999,0.00,,,0.00,,2013-09-24 01:02:00,
2013-09-23 20:22:00,66.0,-99.9,-100.00,East,97,5.0,6.0,-999,0.00,,,0.00,,2013-09-24 01:22:00,
2013-09-23 20:32:00,66.0,-99.9,-100.00,East,97,5.0,6.0,-999,0.00,,,0.00,,2013-09-24 01:32:00,
2013-09-23 21:23:00,63.0,-99.9,-100.00,ESE,107,6.0,7.0,-999,0.00,,,0.00,,2013-09-24 02:23:00,
2013-09-23 21:43:00,62.0,-99.9,-100.00,East,98,5.0,7.0,-999,0.00,,,0.00,,2013-09-24 02:43:00,
2013-09-23 21:52:00,62.0,-99.9,-100.00,East,98,5.0,7.0,-999,0.00,,,0.00,,2013-09-24 02:52:00,
2013-09-23 22:10:00,61.0,-99.9,-100.00,ESE,120,3.0,4.0,-999,0.00,,,0.00,,2013-09-24 03:10:00,
2013-09-23 22:12:00,61.0,-99.9,-100.00,East,98,4.0,6.0,-999,0.00,,,0.00,,2013-09-24 03:12:00,
2013-09-23 22:22:00,61.0,-99.9,-100.00,East,98,4.0,6.0,-999,0.00,,,0.00,,2013-09-24 03:22:00,
2013-09-23 22:45:00,61.0,-99.9,-100.00,ESE,120,3.0,4.0,-999,0.00,,,0.00,,2013-09-24 03:45:00,
2013-09-23 22:55:00,61.0,-99.9,-100.00,ESE,120,3.0,4.0,-999,0.00,,,0.00,,2013-09-24 03:55:00,
2013-09-23 23:04:00,61.0,-99.9,-100.00,ESE,120,3.0,4.0,-999,0.00,,,0.00,,2013-09-24 04:04:00,
2013-09-23 23:44:00,57.0,-99.9,-100.00,East,95,2.0,4.0,-999,0.00,,,0.00,,2013-09-24 04:44:00,
2013-09-23 23:54:00,57.0,-99.9,-100.00,East,95,2.0,4.0,-999,0.00,,,0.00,,2013-09-24 04:54:00,